createdAt,value
2023-03-31T00:00:52.907Z,89.59
2023-03-31T00:03:24.638Z,87.65
2023-03-31T00:06:01.470Z,87.31
2023-03-31T00:08:36.058Z,87.76
2023-03-31T00:11:05.722Z,88.21
2023-03-31T00:13:32.549Z,87.98
2023-03-31T00:16:02.327Z,88.05
2023-03-31T00:21:25.401Z,87.15
2023-03-31T00:24:02.654Z,87.32
2023-03-31T00:26:31.248Z,87.67
2023-03-31T00:28:59.268Z,87.70
2023-03-31T00:31:27.891Z,87.68
2023-03-31T00:33:55.391Z,87.85
2023-03-31T00:36:27.605Z,88.04
2023-03-31T00:39:00.236Z,88.48
2023-03-31T00:41:28.317Z,87.10
2023-03-31T00:44:19.314Z,85.94
2023-03-31T00:47:08.182Z,83.88
2023-03-31T00:49:40.780Z,84.21
2023-03-31T00:52:13.782Z,85.49
2023-03-31T00:54:43.277Z,85.49
2023-03-31T00:57:11.450Z,86.04
2023-03-31T00:59:47.137Z,86.71
2023-03-31T01:02:16.068Z,88.14
2023-03-31T01:04:51.287Z,88.45
2023-03-31T01:07:31.369Z,90.33
2023-03-31T01:10:01.989Z,92.23
2023-03-31T01:12:28.893Z,92.49
2023-03-31T01:14:59.121Z,92.52
2023-03-31T01:20:19.612Z,92.36
2023-03-31T01:23:15.963Z,91.48
2023-03-31T01:26:01.729Z,89.40
2023-03-31T01:28:31.352Z,89.00
2023-03-31T01:31:27.373Z,89.38
2023-03-31T01:34:25.436Z,90.44
2023-03-31T01:37:11.918Z,90.92
2023-03-31T01:40:09.909Z,91.42
2023-03-31T01:42:44.203Z,91.96
2023-03-31T01:45:19.210Z,93.11
2023-03-31T01:47:54.809Z,93.85
2023-03-31T01:50:31.331Z,94.00
2023-03-31T01:52:58.194Z,93.85
2023-03-31T01:55:31.381Z,94.83
2023-03-31T01:58:06.514Z,95.70
2023-03-31T02:00:42.521Z,96.34
2023-03-31T02:03:22.459Z,95.40
2023-03-31T02:05:59.898Z,94.85
2023-03-31T02:08:30.438Z,94.67
2023-03-31T02:10:59.365Z,96.22
2023-03-31T02:16:02.203Z,97.66
2023-03-31T02:18:33.352Z,97.71
2023-03-31T02:21:01.478Z,97.14
2023-03-31T02:23:32.468Z,97.47
2023-03-31T02:26:10.502Z,96.73
2023-03-31T02:28:37.917Z,96.87
2023-03-31T02:31:28.711Z,96.57
2023-03-31T02:33:56.620Z,97.28
2023-03-31T02:36:24.964Z,97.82
2023-03-31T02:38:58.696Z,96.48
2023-03-31T02:41:25.787Z,95.73
2023-03-31T02:43:52.708Z,95.29
2023-03-31T02:46:19.740Z,97.41
2023-03-31T02:48:50.194Z,96.54
2023-03-31T02:51:31.502Z,94.45
2023-03-31T02:54:22.576Z,91.81
2023-03-31T02:57:14.325Z,88.59
2023-03-31T02:59:51.225Z,84.00
2023-03-31T03:02:31.455Z,83.31
2023-03-31T03:05:07.465Z,84.31
2023-03-31T03:07:46.202Z,85.65
2023-03-31T03:10:31.816Z,83.88
2023-03-31T03:13:26.985Z,85.50
2023-03-31T03:16:04.497Z,85.34
2023-03-31T03:18:32.563Z,85.76
2023-03-31T03:20:59.942Z,84.93
2023-03-31T03:23:27.301Z,83.47
2023-03-31T03:25:58.023Z,85.40
2023-03-31T03:28:25.306Z,84.52
2023-03-31T03:30:52.364Z,84.75
2023-03-31T03:33:19.428Z,85.63
2023-03-31T03:35:46.465Z,86.94
2023-03-31T03:38:13.907Z,87.36
2023-03-31T03:40:40.740Z,88.84
2023-03-31T03:43:07.491Z,89.26
2023-03-31T03:45:34.291Z,89.71
2023-03-31T03:48:01.169Z,90.39
2023-03-31T03:50:28.068Z,91.93
2023-03-31T03:52:54.934Z,92.48
2023-03-31T03:55:21.985Z,93.32
2023-03-31T03:57:48.848Z,91.89
2023-03-31T04:00:17.479Z,94.54
2023-03-31T04:02:44.770Z,96.54
2023-03-31T04:05:12.515Z,95.58
2023-03-31T04:07:39.890Z,98.86
2023-03-31T04:10:07.413Z,99.80
2023-03-31T04:12:37.439Z,100.00
2023-03-31T04:15:06.131Z,99.93
2023-03-31T04:17:33.403Z,100.00
2023-03-31T04:20:12.044Z,100.00
2023-03-31T04:22:43.279Z,100.00
2023-03-31T04:25:18.166Z,100.00
2023-03-31T04:27:50.965Z,100.00
2023-03-31T04:32:58.612Z,100.00
2023-03-31T04:35:27.938Z,100.00
2023-03-31T04:37:59.355Z,100.00
2023-03-31T04:40:27.181Z,100.00
2023-03-31T04:42:54.089Z,100.00
2023-03-31T04:45:20.908Z,100.00
2023-03-31T04:47:48.182Z,100.00
2023-03-31T04:50:16.935Z,100.00
2023-03-31T04:52:44.529Z,100.00
2023-03-31T04:55:11.688Z,100.00
2023-03-31T04:57:38.533Z,100.00
2023-03-31T05:00:08.197Z,100.00
2023-03-31T05:02:35.358Z,100.00
2023-03-31T05:05:02.338Z,100.00
2023-03-31T05:09:58.898Z,100.00
2023-03-31T05:12:26.504Z,100.00
2023-03-31T05:14:53.496Z,100.00
2023-03-31T05:17:20.288Z,100.00
2023-03-31T05:19:47.083Z,100.00
2023-03-31T05:22:13.971Z,99.80
2023-03-31T05:24:41.564Z,100.00
2023-03-31T05:27:08.537Z,100.00
2023-03-31T05:29:35.395Z,100.00
2023-03-31T05:32:03.647Z,100.00
2023-03-31T05:34:31.862Z,99.42
2023-03-31T05:36:58.861Z,99.61
2023-03-31T05:39:25.982Z,99.83
2023-03-31T05:41:52.873Z,99.40
2023-03-31T05:44:21.028Z,98.16
2023-03-31T05:46:48.560Z,98.22
2023-03-31T05:49:17.308Z,100.00
2023-03-31T05:51:44.336Z,100.00
2023-03-31T05:54:11.194Z,100.00
2023-03-31T05:56:38.093Z,100.00
2023-03-31T05:59:05.507Z,100.00
2023-03-31T06:01:33.286Z,100.00
2023-03-31T06:04:00.257Z,100.00
2023-03-31T06:06:28.169Z,100.00
2023-03-31T06:08:54.998Z,100.00
2023-03-31T06:11:22.994Z,100.00
2023-03-31T06:13:50.083Z,100.00
2023-03-31T06:16:17.739Z,100.00
2023-03-31T06:18:45.606Z,100.00
2023-03-31T06:21:17.544Z,100.00
2023-03-31T06:23:45.859Z,100.00
2023-03-31T06:26:15.603Z,100.00
2023-03-31T06:28:42.967Z,100.00
2023-03-31T06:31:15.307Z,100.00
2023-03-31T06:33:43.185Z,100.00
2023-03-31T06:36:12.178Z,100.00
2023-03-31T06:38:40.071Z,100.00
2023-03-31T06:41:08.874Z,100.00
2023-03-31T06:43:36.288Z,100.00
2023-03-31T06:46:07.348Z,100.00
2023-03-31T06:48:34.472Z,100.00
2023-03-31T06:51:03.585Z,100.00
2023-03-31T06:53:31.444Z,100.00
2023-03-31T06:55:58.779Z,100.00
2023-03-31T06:58:26.888Z,100.00
2023-03-31T07:00:55.223Z,100.00
2023-03-31T07:03:25.565Z,100.00
2023-03-31T07:05:53.703Z,100.00
2023-03-31T07:08:22.022Z,100.00
2023-03-31T07:10:59.954Z,100.00
2023-03-31T07:13:27.386Z,100.00
2023-03-31T07:15:54.882Z,100.00
2023-03-31T07:18:26.490Z,100.00
2023-03-31T07:20:53.646Z,100.00
2023-03-31T07:23:21.101Z,100.00
2023-03-31T07:25:48.615Z,100.00
2023-03-31T07:28:19.157Z,100.00
2023-03-31T07:30:45.978Z,100.00
2023-03-31T07:33:13.594Z,100.00
2023-03-31T07:35:41.488Z,100.00
2023-03-31T07:38:10.650Z,100.00
2023-03-31T07:40:39.073Z,100.00
2023-03-31T07:43:06.845Z,100.00
2023-03-31T07:45:35.137Z,100.00
2023-03-31T07:48:02.165Z,100.00
2023-03-31T07:50:29.050Z,100.00
2023-03-31T07:52:55.844Z,100.00
2023-03-31T07:55:24.771Z,100.00
2023-03-31T07:57:51.656Z,100.00
2023-03-31T08:00:19.584Z,100.00
2023-03-31T08:02:46.678Z,100.00
2023-03-31T08:05:15.512Z,100.00
2023-03-31T08:07:45.503Z,100.00
2023-03-31T08:10:16.709Z,100.00
2023-03-31T08:12:43.713Z,100.00
2023-03-31T08:15:12.001Z,100.00
2023-03-31T08:17:39.562Z,100.00
2023-03-31T08:20:08.256Z,100.00
2023-03-31T08:22:35.268Z,100.00
2023-03-31T08:25:05.890Z,100.00
2023-03-31T08:27:37.671Z,100.00
2023-03-31T08:30:06.935Z,100.00
2023-03-31T08:32:35.861Z,100.00
2023-03-31T08:35:02.917Z,100.00
2023-03-31T08:39:57.121Z,100.00
2023-03-31T08:42:31.628Z,100.00
2023-03-31T08:45:07.144Z,100.00
2023-03-31T08:47:37.295Z,100.00
2023-03-31T08:50:12.977Z,100.00
2023-03-31T08:52:50.616Z,100.00
2023-03-31T08:55:27.880Z,100.00
2023-03-31T08:58:20.960Z,98.86
2023-03-31T09:00:58.397Z,94.82
2023-03-31T09:03:28.149Z,94.30
2023-03-31T09:06:03.253Z,91.10
2023-03-31T09:08:33.688Z,92.25
2023-03-31T09:11:31.556Z,100.00
2023-03-31T09:14:21.438Z,94.68
2023-03-31T09:16:51.668Z,99.67
2023-03-31T09:19:31.633Z,96.93
2023-03-31T09:22:02.090Z,98.06
2023-03-31T09:24:32.257Z,100.00
2023-03-31T09:27:12.270Z,100.00
2023-03-31T09:29:57.732Z,100.00
2023-03-31T09:32:31.761Z,100.00
2023-03-31T09:35:14.917Z,98.86
2023-03-31T09:37:42.331Z,95.84
2023-03-31T09:40:17.889Z,97.47
2023-03-31T09:42:51.559Z,100.00
2023-03-31T09:45:20.402Z,100.00
2023-03-31T09:47:57.356Z,100.00
2023-03-31T09:50:26.890Z,100.00
2023-03-31T09:52:59.166Z,100.00
2023-03-31T09:55:39.609Z,100.00
2023-03-31T09:58:08.906Z,100.00
2023-03-31T10:00:36.666Z,100.00
2023-03-31T10:03:07.942Z,100.00
2023-03-31T10:05:37.997Z,100.00
2023-03-31T10:08:16.693Z,100.00
2023-03-31T10:11:07.357Z,100.00
2023-03-31T10:13:47.652Z,100.00
2023-03-31T10:16:23.530Z,100.00
2023-03-31T10:18:50.610Z,100.00
2023-03-31T10:21:24.714Z,100.00
2023-03-31T10:23:52.476Z,100.00
2023-03-31T10:26:23.000Z,98.19
2023-03-31T10:28:55.713Z,97.28
2023-03-31T10:33:56.670Z,97.96
2023-03-31T10:38:56.697Z,100.00
2023-03-31T10:44:02.900Z,94.42
2023-03-31T10:46:30.654Z,95.45
2023-03-31T10:49:00.136Z,96.31
2023-03-31T10:51:28.366Z,95.93
2023-03-31T10:54:00.821Z,90.14
2023-03-31T10:56:31.603Z,94.74
2023-03-31T10:59:10.708Z,97.53
2023-03-31T11:01:52.466Z,96.62
2023-03-31T11:04:31.897Z,95.42
2023-03-31T11:07:21.216Z,97.82
2023-03-31T11:10:19.022Z,98.33
2023-03-31T11:13:00.930Z,91.39
2023-03-31T11:15:31.751Z,85.83
2023-03-31T11:18:17.016Z,89.60
2023-03-31T11:21:22.299Z,91.95
2023-03-31T11:24:16.816Z,89.45
2023-03-31T11:26:51.042Z,90.31
2023-03-31T11:32:22.896Z,85.94
2023-03-31T11:34:55.480Z,86.08
2023-03-31T11:37:31.776Z,83.77
2023-03-31T11:40:22.405Z,80.53
2023-03-31T11:42:58.503Z,80.61
2023-03-31T11:45:31.607Z,81.55
2023-03-31T11:48:14.583Z,82.49
2023-03-31T11:50:44.627Z,81.40
2023-03-31T11:53:21.462Z,80.21
2023-03-31T11:55:52.260Z,82.23
2023-03-31T11:58:27.082Z,83.55
2023-03-31T12:01:00.126Z,81.19
2023-03-31T12:03:31.862Z,83.04
2023-03-31T12:06:17.663Z,84.25
2023-03-31T12:09:08.752Z,84.28
2023-03-31T12:12:02.689Z,82.63
2023-03-31T12:14:31.855Z,86.34
2023-03-31T12:17:09.205Z,83.52
2023-03-31T12:19:36.133Z,80.76
2023-03-31T12:22:20.890Z,78.09
2023-03-31T12:24:47.783Z,73.11
2023-03-31T12:27:18.934Z,69.50
2023-03-31T12:30:05.456Z,69.27
2023-03-31T12:32:36.946Z,71.70
2023-03-31T12:35:25.343Z,71.07
2023-03-31T12:38:12.290Z,71.72
2023-03-31T12:41:07.853Z,69.49
2023-03-31T12:44:11.972Z,69.02
2023-03-31T12:46:50.702Z,66.56
2023-03-31T12:49:20.231Z,62.34
2023-03-31T12:52:02.262Z,59.83
2023-03-31T12:54:31.459Z,61.84
2023-03-31T12:57:04.267Z,61.45
2023-03-31T12:59:44.656Z,60.74
2023-03-31T13:02:17.612Z,59.98
2023-03-31T13:04:44.819Z,62.68
2023-03-31T13:07:30.812Z,59.61
2023-03-31T13:09:59.004Z,60.14
2023-03-31T13:12:28.748Z,60.63
2023-03-31T13:17:58.988Z,57.17
2023-03-31T13:20:30.964Z,58.99
2023-03-31T13:23:08.076Z,61.01
2023-03-31T13:25:54.319Z,64.08
2023-03-31T13:28:24.360Z,65.67
2023-03-31T13:30:53.105Z,68.52
2023-03-31T13:33:31.713Z,69.28
2023-03-31T13:36:25.309Z,65.53
2023-03-31T13:39:17.788Z,61.24
2023-03-31T13:42:21.172Z,58.06
2023-03-31T13:45:22.635Z,56.64
2023-03-31T13:48:20.814Z,56.47
2023-03-31T13:50:50.279Z,54.60
2023-03-31T13:56:20.781Z,56.46
2023-03-31T13:59:01.710Z,57.36
2023-03-31T14:01:30.888Z,54.90
2023-03-31T14:04:31.802Z,60.54
2023-03-31T14:07:07.898Z,60.77
2023-03-31T14:09:40.178Z,60.93
2023-03-31T14:12:31.713Z,59.55
2023-03-31T14:14:58.744Z,54.45
2023-03-31T14:17:32.017Z,56.08
2023-03-31T14:20:19.926Z,54.64
2023-03-31T14:22:58.449Z,54.03
2023-03-31T14:25:32.334Z,51.07
2023-03-31T14:28:03.274Z,51.30
2023-03-31T14:30:33.461Z,53.58
2023-03-31T14:33:31.729Z,51.04
2023-03-31T14:36:32.064Z,53.05
2023-03-31T14:39:07.578Z,57.25
2023-03-31T14:41:34.869Z,59.86
2023-03-31T14:44:03.713Z,61.27
2023-03-31T14:46:30.995Z,61.83
2023-03-31T14:48:58.031Z,62.94
2023-03-31T14:53:59.155Z,62.68
2023-03-31T14:56:31.738Z,62.81
2023-03-31T14:58:58.689Z,63.21
2023-03-31T15:03:56.494Z,67.66
2023-03-31T15:06:34.358Z,70.03
2023-03-31T15:09:04.380Z,71.66
2023-03-31T15:11:31.914Z,69.35
2023-03-31T15:14:08.346Z,69.63
2023-03-31T15:16:43.053Z,68.51
2023-03-31T15:19:21.424Z,67.45
2023-03-31T15:21:57.555Z,61.61
2023-03-31T15:24:24.428Z,63.88
2023-03-31T15:27:10.622Z,61.72
2023-03-31T15:29:43.647Z,53.79
2023-03-31T15:32:27.906Z,50.78
2023-03-31T15:34:57.332Z,52.03
2023-03-31T15:37:30.804Z,51.25
2023-03-31T15:40:00.794Z,49.24
2023-03-31T15:42:28.647Z,49.62
2023-03-31T15:44:56.638Z,49.05
2023-03-31T15:50:08.526Z,48.74
2023-03-31T15:52:38.731Z,50.04
2023-03-31T15:55:23.787Z,51.13
2023-03-31T15:57:51.678Z,56.23
2023-03-31T16:00:31.916Z,60.99
2023-03-31T16:03:01.235Z,62.07
2023-03-31T16:05:37.362Z,63.03
2023-03-31T16:08:21.000Z,64.80
2023-03-31T16:10:50.605Z,66.56
2023-03-31T16:13:24.439Z,67.02
2023-03-31T16:15:53.987Z,68.29
2023-03-31T16:18:31.784Z,68.76
2023-03-31T16:21:04.067Z,69.48
2023-03-31T16:23:31.812Z,70.86
2023-03-31T16:26:00.203Z,71.17
2023-03-31T16:30:56.346Z,85.02
2023-03-31T16:33:24.918Z,89.17
2023-03-31T16:35:56.361Z,91.44
2023-03-31T16:38:27.592Z,92.23
2023-03-31T16:40:57.004Z,91.59
2023-03-31T16:43:31.794Z,93.37
2023-03-31T16:46:00.947Z,91.34
2023-03-31T16:50:58.132Z,84.20
2023-03-31T16:55:57.840Z,81.33
2023-03-31T16:58:25.409Z,84.31
2023-03-31T17:00:53.073Z,83.34
2023-03-31T17:03:20.770Z,87.28
2023-03-31T17:05:53.237Z,84.86
2023-03-31T17:08:22.882Z,85.25
2023-03-31T17:11:01.752Z,85.77
2023-03-31T17:13:28.817Z,87.11
2023-03-31T17:16:04.594Z,88.32
2023-03-31T17:18:39.786Z,86.17
2023-03-31T17:21:13.913Z,88.03
2023-03-31T17:23:41.373Z,87.72
2023-03-31T17:26:13.036Z,88.11
2023-03-31T17:28:40.077Z,88.26
2023-03-31T17:31:14.950Z,88.39
2023-03-31T17:33:42.686Z,88.85
2023-03-31T17:36:11.443Z,87.51
2023-03-31T17:38:40.069Z,84.66
2023-03-31T17:41:09.946Z,86.68
2023-03-31T17:43:38.291Z,86.64
2023-03-31T17:46:09.879Z,86.08
2023-03-31T17:48:38.868Z,86.65
2023-03-31T17:51:08.229Z,85.53
2023-03-31T17:53:36.619Z,84.64
2023-03-31T17:56:04.557Z,85.34
2023-03-31T17:58:32.763Z,84.38
2023-03-31T18:00:59.870Z,85.16
2023-03-31T18:05:56.175Z,85.99
2023-03-31T18:08:23.378Z,87.62
2023-03-31T18:10:50.807Z,87.29
2023-03-31T18:13:17.780Z,89.16
2023-03-31T18:15:53.147Z,89.44
2023-03-31T18:18:20.931Z,89.29
2023-03-31T18:20:48.141Z,89.33
2023-03-31T18:23:15.252Z,88.32
2023-03-31T18:25:46.795Z,88.00
2023-03-31T18:28:15.552Z,88.43
2023-03-31T18:30:43.817Z,87.58
2023-03-31T18:33:11.910Z,87.76
2023-03-31T18:35:39.537Z,88.30
2023-03-31T18:38:07.461Z,86.22
2023-03-31T18:40:34.321Z,85.91
2023-03-31T18:43:01.313Z,85.69
2023-03-31T18:47:57.283Z,84.37
2023-03-31T18:50:24.438Z,82.64
2023-03-31T18:52:55.002Z,82.67
2023-03-31T18:55:22.648Z,82.90
2023-03-31T18:57:49.748Z,81.92
2023-03-31T19:00:18.458Z,82.80
2023-03-31T19:02:45.479Z,82.21
2023-03-31T19:05:12.625Z,82.60
2023-03-31T19:07:40.951Z,82.06
2023-03-31T19:10:08.361Z,82.27
2023-03-31T19:12:35.224Z,82.49
2023-03-31T19:15:02.377Z,82.85
2023-03-31T19:17:29.322Z,81.44
2023-03-31T19:19:56.187Z,80.51
2023-03-31T19:22:23.160Z,81.82
2023-03-31T19:24:49.967Z,81.57
2023-03-31T19:27:17.090Z,81.95
2023-03-31T19:29:44.118Z,81.77
2023-03-31T19:32:11.252Z,81.86
2023-03-31T19:34:38.526Z,81.29
2023-03-31T19:37:05.402Z,82.10
2023-03-31T19:39:32.148Z,81.78
2023-03-31T19:41:59.034Z,83.58
2023-03-31T19:44:26.154Z,83.50
2023-03-31T19:46:52.975Z,85.14
2023-03-31T19:49:20.285Z,86.01
2023-03-31T19:51:47.432Z,86.84
2023-03-31T19:54:14.393Z,88.17
2023-03-31T19:56:41.197Z,89.07
2023-03-31T19:59:08.106Z,88.08
2023-03-31T20:01:36.146Z,88.38
2023-03-31T20:04:03.326Z,87.30
2023-03-31T20:06:31.999Z,86.96
2023-03-31T20:09:01.063Z,86.67
2023-03-31T20:13:57.063Z,86.16
2023-03-31T20:16:27.716Z,86.50
2023-03-31T20:18:58.748Z,87.17
2023-03-31T20:21:28.409Z,86.63
2023-03-31T20:23:55.773Z,87.36
2023-03-31T20:28:58.460Z,86.97
2023-03-31T20:33:57.524Z,86.93
2023-03-31T20:36:27.421Z,85.65
2023-03-31T20:38:54.332Z,86.69
2023-03-31T20:41:26.976Z,86.48
2023-03-31T20:43:55.123Z,85.90
2023-03-31T20:46:22.804Z,85.75
2023-03-31T20:48:53.331Z,86.82
2023-03-31T20:51:23.524Z,87.38
2023-03-31T20:53:55.485Z,87.82
2023-03-31T20:56:29.162Z,87.89
2023-03-31T20:58:59.840Z,88.45
2023-03-31T21:04:01.068Z,87.68
2023-03-31T21:08:57.864Z,87.75
2023-03-31T21:11:25.484Z,87.47
2023-03-31T21:13:53.440Z,88.02
2023-03-31T21:16:21.557Z,88.83
2023-03-31T21:18:48.926Z,88.77
2023-03-31T21:21:19.149Z,88.39
2023-03-31T21:23:46.916Z,88.39
2023-03-31T21:26:15.984Z,88.84
2023-03-31T21:28:44.126Z,88.74
2023-03-31T21:31:19.885Z,89.42
2023-03-31T21:33:47.739Z,88.71
2023-03-31T21:36:18.315Z,89.42
2023-03-31T21:38:46.026Z,89.42
2023-03-31T21:41:16.182Z,88.71
2023-03-31T21:43:44.248Z,88.62
2023-03-31T21:46:16.894Z,88.78
2023-03-31T21:48:44.363Z,89.41
2023-03-31T21:51:12.255Z,88.63
2023-03-31T21:53:39.220Z,89.49
2023-03-31T21:56:08.021Z,88.63
2023-03-31T21:58:35.119Z,88.64
2023-03-31T22:01:04.525Z,88.45
2023-03-31T22:03:34.633Z,88.83
2023-03-31T22:06:04.339Z,88.94
2023-03-31T22:08:30.961Z,87.95
2023-03-31T22:11:06.227Z,87.21
2023-03-31T22:13:33.378Z,87.34
2023-03-31T22:16:02.399Z,87.50
2023-03-31T22:20:57.341Z,87.07
2023-03-31T22:23:24.556Z,87.46
2023-03-31T22:25:51.545Z,87.56
2023-03-31T22:28:18.748Z,87.08
2023-03-31T22:30:45.816Z,86.67
2023-03-31T22:33:13.333Z,86.77
2023-03-31T22:35:40.281Z,87.50
2023-03-31T22:38:08.681Z,87.50
2023-03-31T22:40:36.535Z,86.99
2023-03-31T22:43:04.235Z,88.12
2023-03-31T22:47:56.948Z,87.03
2023-03-31T22:50:24.736Z,87.14
2023-03-31T22:52:52.287Z,87.98
2023-03-31T22:55:19.470Z,86.31
2023-03-31T22:57:49.601Z,87.27
2023-03-31T23:00:17.318Z,86.35
2023-03-31T23:02:44.276Z,86.70
2023-03-31T23:05:11.114Z,86.95
2023-03-31T23:07:38.819Z,85.11
2023-03-31T23:10:06.374Z,85.29
2023-03-31T23:12:33.245Z,86.87
2023-03-31T23:15:00.227Z,86.12
2023-03-31T23:17:27.406Z,85.20
2023-03-31T23:19:54.478Z,85.65
2023-03-31T23:22:21.906Z,85.50
2023-03-31T23:24:49.939Z,84.76
2023-03-31T23:27:16.689Z,84.18
2023-03-31T23:29:44.565Z,84.25
2023-03-31T23:32:11.376Z,84.21
2023-03-31T23:34:43.076Z,83.53
2023-03-31T23:37:12.188Z,83.71
2023-03-31T23:39:40.289Z,82.93
2023-03-31T23:42:08.246Z,82.93
2023-03-31T23:44:39.246Z,83.33
2023-03-31T23:47:06.743Z,82.89
2023-03-31T23:49:33.932Z,82.98
2023-03-31T23:52:01.553Z,83.68
2023-03-31T23:54:29.170Z,83.66
2023-03-31T23:56:56.438Z,83.28
2023-03-31T23:59:23.372Z,83.41
